createdAt,value
2022-09-26T00:00:20.938Z,6.00
2022-09-26T00:02:48.632Z,5.83
2022-09-26T00:05:16.523Z,6.73
2022-09-26T00:07:44.065Z,4.10
2022-09-26T00:10:11.582Z,7.17
2022-09-26T00:12:40.556Z,6.00
2022-09-26T00:15:09.211Z,8.63
2022-09-26T00:17:36.836Z,6.43
2022-09-26T00:20:05.283Z,7.53
2022-09-26T00:22:32.878Z,5.70
2022-09-26T00:25:00.445Z,7.67
2022-09-26T00:27:28.112Z,4.30
2022-09-26T00:29:57.027Z,7.43
2022-09-26T00:32:24.661Z,6.93
2022-09-26T00:34:52.190Z,6.47
2022-09-26T00:37:19.895Z,4.77
2022-09-26T00:39:47.467Z,5.13
2022-09-26T00:42:15.893Z,7.07
2022-09-26T00:44:46.938Z,6.93
2022-09-26T00:47:41.829Z,5.73
2022-09-26T00:50:14.854Z,6.00
2022-09-26T00:52:44.795Z,6.67
2022-09-26T00:55:14.961Z,4.57
2022-09-26T00:57:46.454Z,8.30
2022-09-26T01:00:15.840Z,5.17
2022-09-26T01:02:46.875Z,5.50
2022-09-26T01:05:16.970Z,7.70
2022-09-26T01:07:45.085Z,5.83
2022-09-26T01:10:13.072Z,7.77
2022-09-26T01:12:40.670Z,4.63
2022-09-26T01:15:09.400Z,5.43
2022-09-26T01:17:37.951Z,5.50
2022-09-26T01:20:18.738Z,5.43
2022-09-26T01:23:11.895Z,5.07
2022-09-26T01:26:12.221Z,4.87
2022-09-26T01:28:53.480Z,7.73
2022-09-26T01:31:25.300Z,7.50
2022-09-26T01:34:03.571Z,8.47
2022-09-26T01:36:46.535Z,6.17
2022-09-26T01:39:22.965Z,5.47
2022-09-26T01:41:59.136Z,9.40
2022-09-26T01:44:32.163Z,9.10
2022-09-26T01:47:04.371Z,11.43
2022-09-26T01:49:37.498Z,6.50
2022-09-26T01:52:07.285Z,7.40
2022-09-26T01:54:38.319Z,8.50
2022-09-26T01:57:08.720Z,6.50
2022-09-26T01:59:39.896Z,7.00
2022-09-26T02:02:15.860Z,5.97
2022-09-26T02:04:44.013Z,7.63
2022-09-26T02:07:13.849Z,6.10
2022-09-26T02:09:44.667Z,9.43
2022-09-26T02:12:15.601Z,8.43
2022-09-26T02:14:44.531Z,9.73
2022-09-26T02:17:16.163Z,7.33
2022-09-26T02:19:49.394Z,7.43
2022-09-26T02:22:17.428Z,12.37
2022-09-26T02:24:45.782Z,7.50
2022-09-26T02:27:13.962Z,11.63
2022-09-26T02:29:44.506Z,8.73
2022-09-26T02:32:16.071Z,10.80
2022-09-26T02:34:46.106Z,12.43
2022-09-26T02:37:14.782Z,9.80
2022-09-26T02:39:43.531Z,10.63
2022-09-26T02:42:18.254Z,8.57
2022-09-26T02:44:56.449Z,10.83
2022-09-26T02:48:02.914Z,12.93
2022-09-26T02:50:41.583Z,12.57
2022-09-26T02:53:20.120Z,7.37
2022-09-26T02:55:52.727Z,10.50
2022-09-26T02:58:23.115Z,9.83
2022-09-26T03:00:58.784Z,10.43
2022-09-26T03:03:31.838Z,7.77
2022-09-26T03:06:02.036Z,7.73
2022-09-26T03:08:30.832Z,10.03
2022-09-26T03:11:03.402Z,7.13
2022-09-26T03:13:35.208Z,6.70
2022-09-26T03:16:03.524Z,6.97
2022-09-26T03:18:36.663Z,9.20
2022-09-26T03:21:05.882Z,7.33
2022-09-26T03:23:33.564Z,8.13
2022-09-26T03:26:02.668Z,9.57
2022-09-26T03:28:36.860Z,7.67
2022-09-26T03:31:05.525Z,9.33
2022-09-26T03:33:33.091Z,6.97
2022-09-26T03:36:00.807Z,7.00
2022-09-26T03:38:29.779Z,7.00
2022-09-26T03:40:58.447Z,7.57
2022-09-26T03:43:26.772Z,8.07
2022-09-26T03:45:54.999Z,8.57
2022-09-26T03:48:22.743Z,7.57
2022-09-26T03:50:50.301Z,12.17
2022-09-26T03:53:18.827Z,9.50
2022-09-26T03:55:47.987Z,10.47
2022-09-26T03:58:15.675Z,11.80
2022-09-26T04:00:43.326Z,12.63
2022-09-26T04:03:10.950Z,11.33
2022-09-26T04:05:38.565Z,15.77
2022-09-26T04:08:06.224Z,15.90
2022-09-26T04:10:33.888Z,10.50
2022-09-26T04:13:03.049Z,13.03
2022-09-26T04:15:30.900Z,11.13
2022-09-26T04:17:58.435Z,11.10
2022-09-26T04:20:26.069Z,10.30
2022-09-26T04:22:53.619Z,9.00
2022-09-26T04:25:21.159Z,9.33
2022-09-26T04:27:48.738Z,9.70
2022-09-26T04:30:17.716Z,8.57
2022-09-26T04:32:45.286Z,9.90
2022-09-26T04:35:12.816Z,8.03
2022-09-26T04:37:41.135Z,10.03
2022-09-26T04:40:11.053Z,9.73
2022-09-26T04:42:38.628Z,8.90
2022-09-26T04:45:07.232Z,7.97
2022-09-26T04:47:36.281Z,8.57
2022-09-26T04:50:03.984Z,9.40
2022-09-26T04:52:31.499Z,10.53
2022-09-26T04:54:59.006Z,11.73
2022-09-26T04:57:27.617Z,10.77
2022-09-26T04:59:55.194Z,8.50
2022-09-26T05:02:22.768Z,8.90
2022-09-26T05:04:51.761Z,10.33
2022-09-26T05:07:19.425Z,8.63
2022-09-26T05:09:47.831Z,8.43
2022-09-26T05:12:15.740Z,8.17
2022-09-26T05:14:44.288Z,8.87
2022-09-26T05:17:11.938Z,9.53
2022-09-26T05:19:39.464Z,9.80
2022-09-26T05:22:08.313Z,9.67
2022-09-26T05:24:53.568Z,8.97
2022-09-26T05:27:21.159Z,10.53
2022-09-26T05:29:48.672Z,10.43
2022-09-26T05:32:20.672Z,10.80
2022-09-26T05:34:48.909Z,10.73
2022-09-26T05:37:17.772Z,8.37
2022-09-26T05:40:03.016Z,10.63
2022-09-26T05:42:30.557Z,8.77
2022-09-26T05:45:01.961Z,9.20
2022-09-26T05:47:32.237Z,12.10
2022-09-26T05:49:59.737Z,11.37
2022-09-26T05:52:30.848Z,10.63
2022-09-26T05:54:59.111Z,11.67
2022-09-26T05:57:26.717Z,9.63
2022-09-26T05:59:54.283Z,9.20
2022-09-26T06:02:21.842Z,9.13
2022-09-26T06:04:49.567Z,10.67
2022-09-26T06:07:17.117Z,10.80
2022-09-26T06:09:46.026Z,12.07
2022-09-26T06:12:15.184Z,12.83
2022-09-26T06:14:46.655Z,10.43
2022-09-26T06:17:14.339Z,11.43
2022-09-26T06:19:41.874Z,11.37
2022-09-26T06:22:09.374Z,9.93
2022-09-26T06:24:36.930Z,9.77
2022-09-26T06:27:05.896Z,8.53
2022-09-26T06:29:33.523Z,9.07
2022-09-26T06:32:01.367Z,11.70
2022-09-26T06:34:28.968Z,8.87
2022-09-26T06:36:56.512Z,10.87
2022-09-26T06:39:24.090Z,9.57
2022-09-26T06:41:53.052Z,11.70
2022-09-26T06:44:23.801Z,8.20
2022-09-26T06:46:51.484Z,7.97
2022-09-26T06:49:19.159Z,8.30
2022-09-26T06:51:48.851Z,7.47
2022-09-26T06:54:16.418Z,10.87
2022-09-26T06:56:44.001Z,8.43
2022-09-26T06:59:12.153Z,11.60
2022-09-26T07:01:41.435Z,8.07
2022-09-26T07:04:09.214Z,11.63
2022-09-26T07:06:37.720Z,8.67
2022-09-26T07:09:09.804Z,10.13
2022-09-26T07:12:02.718Z,6.73
2022-09-26T07:14:27.922Z,9.47
2022-09-26T07:16:56.827Z,9.07
2022-09-26T07:19:24.342Z,12.40
2022-09-26T07:21:51.897Z,6.87
2022-09-26T07:24:19.422Z,7.00
2022-09-26T07:26:47.017Z,7.50
2022-09-26T07:29:14.706Z,6.03
2022-09-26T07:31:42.357Z,6.27
2022-09-26T07:34:15.848Z,7.27
2022-09-26T07:36:47.374Z,9.17
2022-09-26T07:39:15.113Z,7.60
2022-09-26T07:41:45.827Z,6.37
2022-09-26T07:47:18.878Z,7.47
2022-09-26T07:50:05.520Z,7.43
2022-09-26T07:52:33.097Z,7.87
2022-09-26T07:55:00.888Z,6.03
2022-09-26T07:57:33.709Z,7.70
2022-09-26T08:00:01.437Z,7.43
2022-09-26T08:02:34.459Z,9.03
2022-09-26T08:05:05.088Z,8.37
2022-09-26T08:07:33.341Z,5.33
2022-09-26T08:10:01.757Z,5.43
2022-09-26T08:12:29.733Z,5.13
2022-09-26T08:14:57.241Z,9.13
2022-09-26T08:17:24.774Z,5.83
2022-09-26T08:19:52.304Z,7.13
2022-09-26T08:22:21.147Z,5.37
2022-09-26T08:24:50.850Z,5.00
2022-09-26T08:27:19.120Z,6.67
2022-09-26T08:29:48.414Z,4.13
2022-09-26T08:32:18.600Z,5.57
2022-09-26T08:34:46.973Z,3.53
2022-09-26T08:37:14.534Z,5.87
2022-09-26T08:39:43.517Z,4.13
2022-09-26T08:42:29.734Z,5.30
2022-09-26T08:45:30.378Z,5.07
2022-09-26T08:48:04.916Z,5.23
2022-09-26T08:50:38.401Z,3.63
2022-09-26T08:53:09.718Z,6.23
2022-09-26T08:55:43.868Z,4.53
2022-09-26T08:58:16.752Z,5.27
2022-09-26T09:00:45.015Z,4.53
2022-09-26T09:03:21.580Z,4.70
2022-09-26T09:05:51.088Z,7.47
2022-09-26T09:08:22.429Z,3.37
2022-09-26T09:10:56.666Z,2.90
2022-09-26T09:13:38.768Z,5.70
2022-09-26T09:16:19.771Z,4.83
2022-09-26T09:18:55.300Z,3.40
2022-09-26T09:21:40.777Z,6.87
2022-09-26T09:24:19.904Z,4.23
2022-09-26T09:30:15.745Z,6.40
2022-09-26T09:32:49.353Z,2.67
2022-09-26T09:35:20.769Z,4.23
2022-09-26T09:37:50.961Z,12.30
2022-09-26T09:40:25.720Z,3.53
2022-09-26T09:42:58.671Z,7.07
2022-09-26T09:45:30.901Z,4.67
2022-09-26T09:47:58.616Z,4.40
2022-09-26T09:50:33.673Z,4.90
2022-09-26T09:53:07.783Z,5.23
2022-09-26T09:55:39.786Z,6.90
2022-09-26T09:58:17.794Z,6.07
2022-09-26T10:00:51.298Z,6.10
2022-09-26T10:03:25.739Z,5.20
2022-09-26T10:05:56.741Z,7.20
2022-09-26T10:08:31.237Z,5.33
2022-09-26T10:11:09.083Z,7.07
2022-09-26T10:13:38.892Z,5.50
2022-09-26T10:16:07.931Z,6.33
2022-09-26T10:18:53.411Z,6.77
2022-09-26T10:21:21.278Z,4.07
2022-09-26T10:23:50.347Z,6.37
2022-09-26T10:26:34.687Z,3.77
2022-09-26T10:29:08.097Z,4.63
2022-09-26T10:31:42.007Z,6.97
2022-09-26T10:34:23.420Z,6.63
2022-09-26T10:36:50.938Z,6.47
2022-09-26T10:39:37.931Z,4.73
2022-09-26T10:42:15.408Z,7.73
2022-09-26T10:44:45.958Z,4.47
2022-09-26T10:47:15.347Z,5.10
2022-09-26T10:49:50.994Z,4.00
2022-09-26T10:52:23.668Z,8.30
2022-09-26T10:54:57.289Z,7.33
2022-09-26T10:57:28.479Z,6.90
2022-09-26T10:59:59.589Z,3.90
2022-09-26T11:02:28.342Z,4.47
2022-09-26T11:05:17.280Z,3.83
2022-09-26T11:07:47.180Z,6.20
2022-09-26T11:10:16.301Z,4.90
2022-09-26T11:12:57.477Z,5.63
2022-09-26T11:15:28.544Z,3.77
2022-09-26T11:17:56.749Z,3.47
2022-09-26T11:20:38.974Z,3.50
2022-09-26T11:23:14.553Z,2.87
2022-09-26T11:28:40.236Z,4.90
2022-09-26T11:31:25.894Z,5.07
2022-09-26T11:37:03.396Z,2.00
2022-09-26T11:39:42.450Z,3.93
2022-09-26T11:42:22.242Z,3.07
2022-09-26T11:44:55.488Z,4.30
2022-09-26T11:47:59.496Z,3.57
2022-09-26T11:50:39.641Z,4.90
2022-09-26T11:53:35.736Z,1.63
2022-09-26T11:56:40.576Z,3.23
2022-09-26T11:59:23.530Z,6.13
2022-09-26T12:01:55.767Z,3.03
2022-09-26T12:04:55.123Z,3.07
2022-09-26T12:07:26.470Z,3.10
2022-09-26T12:10:14.753Z,5.27
2022-09-26T12:12:45.714Z,4.03
2022-09-26T12:15:23.593Z,5.57
2022-09-26T12:17:59.453Z,3.73
2022-09-26T12:20:34.346Z,1.90
2022-09-26T12:23:08.772Z,6.07
2022-09-26T12:25:42.326Z,1.50
2022-09-26T12:28:21.950Z,3.87
2022-09-26T12:30:58.229Z,3.30
2022-09-26T12:33:53.793Z,2.23
2022-09-26T12:36:31.240Z,3.90
2022-09-26T12:39:09.497Z,3.53
2022-09-26T12:41:55.220Z,4.57
2022-09-26T12:44:35.297Z,4.30
2022-09-26T12:47:14.959Z,2.57
2022-09-26T12:50:02.334Z,1.50
2022-09-26T12:52:41.465Z,1.90
2022-09-26T12:55:17.844Z,2.40
2022-09-26T12:57:57.067Z,2.87
2022-09-26T13:00:25.148Z,4.27
2022-09-26T13:03:10.593Z,2.30
2022-09-26T13:05:58.008Z,6.50
2022-09-26T13:08:34.054Z,1.93
2022-09-26T13:11:10.324Z,2.93
2022-09-26T13:14:08.967Z,2.77
2022-09-26T13:16:46.868Z,2.00
2022-09-26T13:19:23.512Z,2.00
2022-09-26T13:21:55.410Z,1.67
2022-09-26T13:24:26.024Z,2.90
2022-09-26T13:27:00.480Z,3.33
2022-09-26T13:29:31.872Z,2.93
2022-09-26T13:32:11.081Z,1.53
2022-09-26T13:34:41.285Z,3.80
2022-09-26T13:37:13.437Z,5.83
2022-09-26T13:39:49.007Z,1.10
2022-09-26T13:42:21.214Z,1.03
2022-09-26T13:44:57.436Z,1.57
2022-09-26T13:47:33.382Z,4.67
2022-09-26T13:50:05.144Z,4.47
2022-09-26T13:52:52.170Z,1.17
2022-09-26T13:55:22.143Z,1.73
2022-09-26T13:57:52.330Z,3.70
2022-09-26T14:00:57.564Z,1.40
2022-09-26T14:03:43.162Z,3.07
2022-09-26T14:06:25.553Z,2.10
2022-09-26T14:09:25.099Z,1.57
2022-09-26T14:12:19.231Z,3.73
2022-09-26T14:14:52.054Z,3.03
2022-09-26T14:18:02.270Z,2.80
2022-09-26T14:20:32.343Z,1.97
2022-09-26T14:23:02.009Z,1.70
2022-09-26T14:25:57.497Z,3.30
2022-09-26T14:28:37.084Z,3.33
2022-09-26T14:31:43.832Z,5.17
2022-09-26T14:34:16.981Z,3.33
2022-09-26T14:36:45.736Z,4.60
2022-09-26T14:39:26.909Z,2.77
2022-09-26T14:41:55.114Z,2.20
2022-09-26T14:44:24.497Z,4.67
2022-09-26T14:46:54.024Z,3.80
2022-09-26T14:49:24.503Z,4.80
2022-09-26T14:51:59.733Z,3.47
2022-09-26T14:54:31.943Z,3.63
2022-09-26T14:57:01.971Z,4.00
2022-09-26T14:59:44.154Z,4.30
2022-09-26T15:02:21.086Z,4.40
2022-09-26T15:05:00.123Z,3.27
2022-09-26T15:07:28.424Z,3.53
2022-09-26T15:09:58.602Z,2.70
2022-09-26T15:12:30.782Z,3.83
2022-09-26T15:15:10.672Z,2.43
2022-09-26T15:17:41.640Z,1.37
2022-09-26T15:20:14.597Z,1.80
2022-09-26T15:22:42.680Z,2.43
2022-09-26T15:25:11.909Z,3.40
2022-09-26T15:27:46.236Z,1.27
2022-09-26T15:30:20.101Z,2.77
2022-09-26T15:32:49.096Z,2.13
2022-09-26T15:35:17.588Z,1.73
2022-09-26T15:37:45.881Z,3.50
2022-09-26T15:40:16.478Z,4.00
2022-09-26T15:42:58.772Z,1.50
2022-09-26T15:45:33.167Z,1.53
2022-09-26T15:48:03.980Z,5.63
2022-09-26T15:50:43.876Z,5.10
2022-09-26T15:53:23.900Z,5.33
2022-09-26T15:55:56.436Z,4.00
2022-09-26T15:58:27.843Z,4.90
2022-09-26T16:01:00.156Z,4.73
2022-09-26T16:03:48.368Z,3.20
2022-09-26T16:06:32.245Z,1.73
2022-09-26T16:09:05.803Z,3.43
2022-09-26T16:11:33.962Z,3.70
2022-09-26T16:14:02.018Z,3.20
2022-09-26T16:16:33.019Z,3.00
2022-09-26T16:19:03.166Z,2.50
2022-09-26T16:21:33.894Z,3.33
2022-09-26T16:24:22.296Z,8.97
2022-09-26T16:26:50.746Z,6.07
2022-09-26T16:29:30.279Z,9.47
2022-09-26T16:31:59.476Z,7.20
2022-09-26T16:34:27.118Z,8.53
2022-09-26T16:36:55.158Z,8.80
2022-09-26T16:39:24.375Z,3.87
2022-09-26T16:42:02.296Z,3.63
2022-09-26T16:44:35.905Z,3.90
2022-09-26T16:47:07.386Z,3.10
2022-09-26T16:49:46.865Z,2.50
2022-09-26T16:52:23.707Z,5.00
2022-09-26T16:54:52.036Z,4.23
2022-09-26T16:57:22.354Z,4.73
2022-09-26T16:59:50.889Z,4.17
2022-09-26T17:02:20.303Z,1.90
2022-09-26T17:04:50.002Z,7.10
2022-09-26T17:07:17.678Z,1.73
2022-09-26T17:09:45.344Z,1.63
2022-09-26T17:12:17.998Z,2.20
2022-09-26T17:14:48.023Z,3.70
2022-09-26T17:17:19.765Z,3.90
2022-09-26T17:19:55.409Z,3.70
2022-09-26T17:22:26.836Z,4.07
2022-09-26T17:24:55.464Z,3.50
2022-09-26T17:27:26.884Z,5.43
2022-09-26T17:29:58.160Z,5.97
2022-09-26T17:32:29.447Z,2.60
2022-09-26T17:34:59.822Z,1.83
2022-09-26T17:37:28.529Z,2.73
2022-09-26T17:39:56.635Z,4.30
2022-09-26T17:42:25.111Z,3.17
2022-09-26T17:44:52.902Z,3.07
2022-09-26T17:47:21.101Z,2.60
2022-09-26T17:49:51.857Z,1.60
2022-09-26T17:52:27.043Z,2.57
2022-09-26T17:54:58.392Z,2.33
2022-09-26T17:57:29.816Z,2.00
2022-09-26T17:59:57.742Z,2.80
2022-09-26T18:02:31.242Z,4.60
2022-09-26T18:05:01.271Z,2.90
2022-09-26T18:07:35.434Z,3.90
2022-09-26T18:10:07.079Z,4.53
2022-09-26T18:12:35.580Z,5.07
2022-09-26T18:15:04.729Z,5.10
2022-09-26T18:17:32.481Z,5.20
2022-09-26T18:20:00.165Z,3.00
2022-09-26T18:22:31.959Z,2.60
2022-09-26T18:25:04.638Z,3.57
2022-09-26T18:27:32.591Z,4.13
2022-09-26T18:30:00.251Z,4.40
2022-09-26T18:32:31.103Z,3.30
2022-09-26T18:34:58.979Z,2.63
2022-09-26T18:37:27.350Z,2.20
2022-09-26T18:40:00.143Z,2.93
2022-09-26T18:42:31.705Z,3.57
2022-09-26T18:45:03.461Z,3.67
2022-09-26T18:47:32.038Z,2.63
2022-09-26T18:49:59.754Z,1.87
2022-09-26T18:52:27.361Z,3.17
2022-09-26T18:55:10.231Z,5.17
2022-09-26T18:57:55.270Z,6.10
2022-09-26T19:00:22.931Z,1.87
2022-09-26T19:02:51.155Z,3.00
2022-09-26T19:05:19.366Z,2.67
2022-09-26T19:07:47.030Z,4.67
2022-09-26T19:10:17.749Z,2.33
2022-09-26T19:12:45.419Z,2.23
2022-09-26T19:15:16.530Z,4.30
2022-09-26T19:17:44.319Z,3.33
2022-09-26T19:20:11.920Z,1.80
2022-09-26T19:22:39.643Z,2.40
2022-09-26T19:25:09.492Z,2.60
2022-09-26T19:27:43.672Z,6.10
2022-09-26T19:30:22.164Z,3.60
2022-09-26T19:32:51.448Z,4.10
2022-09-26T19:35:23.923Z,1.93
2022-09-26T19:37:51.916Z,2.80
2022-09-26T19:40:21.368Z,2.10
2022-09-26T19:42:50.461Z,1.63
2022-09-26T19:45:19.620Z,2.00
2022-09-26T19:47:48.807Z,3.23
2022-09-26T19:50:17.746Z,2.27
2022-09-26T19:52:45.999Z,2.60
2022-09-26T19:55:15.987Z,2.10
2022-09-26T19:57:44.462Z,2.53
2022-09-26T20:00:14.625Z,4.80
2022-09-26T20:02:42.506Z,4.83
2022-09-26T20:05:18.097Z,1.50
2022-09-26T20:07:45.738Z,2.07
2022-09-26T20:10:15.922Z,1.57
2022-09-26T20:12:43.671Z,1.40
2022-09-26T20:15:14.049Z,1.17
2022-09-26T20:17:59.613Z,1.70
2022-09-26T20:20:28.060Z,2.40
2022-09-26T20:22:56.454Z,1.93
2022-09-26T20:25:27.151Z,1.20
2022-09-26T20:27:55.525Z,3.53
2022-09-26T20:30:43.373Z,2.30
2022-09-26T20:33:13.115Z,2.87
2022-09-26T20:35:42.871Z,2.17
2022-09-26T20:38:16.064Z,2.80
2022-09-26T20:40:44.739Z,2.20
2022-09-26T20:43:16.233Z,1.20
2022-09-26T20:45:45.303Z,1.27
2022-09-26T20:48:19.490Z,1.50
2022-09-26T20:50:48.402Z,0.83
2022-09-26T20:53:18.276Z,1.30
2022-09-26T20:55:46.167Z,0.87
2022-09-26T20:58:13.886Z,1.67
2022-09-26T21:00:42.174Z,0.90
2022-09-26T21:03:13.425Z,2.10
2022-09-26T21:05:41.230Z,0.90
2022-09-26T21:08:12.115Z,1.63
2022-09-26T21:10:40.035Z,2.10
2022-09-26T21:13:07.711Z,3.23
2022-09-26T21:15:35.361Z,1.10
2022-09-26T21:18:03.252Z,1.33
2022-09-26T21:20:33.582Z,1.10
2022-09-26T21:23:02.234Z,1.90
2022-09-26T21:25:31.727Z,1.33
2022-09-26T21:28:01.549Z,1.47
2022-09-26T21:30:30.313Z,1.53
2022-09-26T21:32:59.455Z,1.40
2022-09-26T21:35:30.103Z,0.83
2022-09-26T21:38:00.177Z,2.87
2022-09-26T21:40:29.601Z,1.00
2022-09-26T21:43:01.718Z,1.47
2022-09-26T21:45:29.438Z,2.53
2022-09-26T21:47:58.163Z,1.17
2022-09-26T21:50:27.470Z,1.07
2022-09-26T21:52:58.028Z,0.83
2022-09-26T21:55:30.919Z,0.90
2022-09-26T21:58:01.194Z,1.20
2022-09-26T22:00:28.840Z,0.70
2022-09-26T22:02:59.240Z,1.10
2022-09-26T22:05:26.989Z,0.83
2022-09-26T22:07:55.823Z,4.10
2022-09-26T22:10:23.515Z,0.93
2022-09-26T22:12:53.251Z,0.80
2022-09-26T22:15:21.118Z,1.03
2022-09-26T22:17:48.808Z,1.40
2022-09-26T22:20:16.714Z,0.83
2022-09-26T22:22:44.415Z,0.70
2022-09-26T22:25:15.125Z,0.63
2022-09-26T22:27:42.841Z,1.00
2022-09-26T22:30:13.834Z,0.90
2022-09-26T22:32:41.497Z,0.80
2022-09-26T22:35:09.519Z,0.83
2022-09-26T22:37:39.249Z,1.07
2022-09-26T22:40:08.300Z,0.77
2022-09-26T22:42:35.992Z,0.87
2022-09-26T22:45:03.716Z,0.93
2022-09-26T22:47:32.789Z,0.60
2022-09-26T22:50:00.513Z,0.67
2022-09-26T22:52:28.156Z,0.73
2022-09-26T22:54:56.236Z,2.37
2022-09-26T22:57:24.535Z,1.23
2022-09-26T22:59:52.269Z,0.87
2022-09-26T23:02:20.034Z,1.47
2022-09-26T23:04:49.160Z,0.67
2022-09-26T23:07:18.448Z,0.70
2022-09-26T23:09:46.799Z,0.73
2022-09-26T23:12:14.479Z,0.83
2022-09-26T23:14:42.368Z,0.57
2022-09-26T23:17:10.190Z,0.73
2022-09-26T23:19:38.112Z,1.27
2022-09-26T23:22:07.246Z,0.50
2022-09-26T23:24:35.035Z,0.93
2022-09-26T23:27:02.753Z,0.77
2022-09-26T23:29:30.415Z,0.60
2022-09-26T23:31:58.956Z,1.43
2022-09-26T23:34:26.639Z,0.87
2022-09-26T23:36:54.375Z,0.80
2022-09-26T23:39:23.671Z,0.77
2022-09-26T23:41:51.537Z,1.57
2022-09-26T23:44:19.300Z,0.77
2022-09-26T23:46:46.999Z,1.00
2022-09-26T23:49:14.814Z,0.90
2022-09-26T23:51:42.638Z,1.00
2022-09-26T23:54:10.981Z,1.53
2022-09-26T23:56:41.638Z,0.90
2022-09-26T23:59:09.524Z,0.60
